Time;durP1;ratioP1;P1;durP2;ratioP2;P2;SDS_P1;SDS_P2;PMS_P1;PMS_P2;Temp;Humidity;BMP_temperature;BMP_pressure;BME280_temperature;BME280_humidity;BME280_pressure;Samples;Min_cycle;Max_cycle;Signal;HPM_P1;HPM_P2
2022/10/24 00:02:02;;;;;;;10.57;5.40;;;;;;;;;;4987056;28;20109;-60
2022/10/24 00:04:28;;;;;;;10.07;5.07;;;;;;;;;;4985786;28;20117;-60
2022/10/24 00:06:53;;;;;;;12.95;5.85;;;;;;;;;;4991759;28;20081;-60
2022/10/24 00:09:18;;;;;;;14.77;5.47;;;;;;;;;;4990068;28;20030;-58
2022/10/24 00:11:44;;;;;;;13.98;5.75;;;;;;;;;;4990040;28;20040;-59
2022/10/24 00:14:10;;;;;;;15.90;6.13;;;;;;;;;;4989615;28;20050;-60
2022/10/24 00:16:35;;;;;;;11.20;5.68;;;;;;;;;;4988808;28;20090;-60
2022/10/24 00:19:01;;;;;;;20.98;6.32;;;;;;;;;;4987215;28;20094;-60
2022/10/24 00:21:26;;;;;;;15.38;6.15;;;;;;;;;;4984486;28;20061;-60
2022/10/24 00:23:52;;;;;;;15.23;5.95;;;;;;;;;;4975340;28;20041;-61
2022/10/24 00:26:18;;;;;;;15.05;6.43;;;;;;;;;;4977515;28;20054;-60
2022/10/24 00:28:43;;;;;;;16.67;6.28;;;;;;;;;;4971732;28;20398;-61
2022/10/24 00:31:13;;;;;;;14.00;6.85;;;;;;;;;;4980815;28;20046;-59
2022/10/24 00:33:39;;;;;;;13.18;5.70;;;;;;;;;;4971304;28;20042;-60
2022/10/24 00:36:08;;;;;;;12.38;6.00;;;;;;;;;;4972087;28;20085;-60
2022/10/24 00:38:34;;;;;;;12.93;6.03;;;;;;;;;;4975136;28;20033;-60
2022/10/24 00:40:59;;;;;;;14.40;6.05;;;;;;;;;;4970964;28;20433;-60
2022/10/24 00:43:26;;;;;;;11.32;6.10;;;;;;;;;;4972655;28;20204;-60
2022/10/24 00:45:56;;;;;;;15.98;5.95;;;;;;;;;;4970632;28;20054;-60
2022/10/24 00:48:35;;;;;;;14.23;5.85;;;;;;;;;;4970803;28;20050;-61
2022/10/24 00:51:24;;;;;;;12.98;5.32;;;;;;;;;;4975116;28;20046;-61
2022/10/24 00:53:53;;;;;;;16.38;5.72;;;;;;;;;;4975034;28;20074;-61
2022/10/24 00:56:24;;;;;;;13.95;5.68;;;;;;;;;;4982136;28;20082;-61
2022/10/24 00:58:52;;;;;;;11.52;5.82;;;;;;;;;;4985018;28;20096;-61
2022/10/24 01:01:18;;;;;;;16.08;5.65;;;;;;;;;;4973205;28;20503;-61
2022/10/24 01:03:43;;;;;;;13.27;5.57;;;;;;;;;;4976356;28;20055;-62
2022/10/24 01:06:27;;;;;;;16.77;6.60;;;;;;;;;;4973595;28;20037;-60
2022/10/24 01:09:13;;;;;;;18.67;5.55;;;;;;;;;;4972448;28;20042;-63
2022/10/24 01:11:58;;;;;;;12.35;5.22;;;;;;;;;;4973425;28;20061;-60
2022/10/24 01:14:52;;;;;;;17.35;5.60;;;;;;;;;;4967474;28;20034;-62
2022/10/24 01:17:52;;;;;;;16.92;6.00;;;;;;;;;;4952178;28;21312;-59
2022/10/24 01:20:56;;;;;;;13.27;5.35;;;;;;;;;;4972244;28;20100;-60
2022/10/24 01:24:00;;;;;;;14.95;6.18;;;;;;;;;;4969033;28;20058;-60
2022/10/24 01:26:41;;;;;;;16.17;5.80;;;;;;;;;;4906614;29;21634;-60
2022/10/24 01:29:25;;;;;;;17.25;5.68;;;;;;;;;;4908686;29;20106;-60
2022/10/24 01:31:53;;;;;;;12.32;5.63;;;;;;;;;;4956168;28;20657;-62
2022/10/24 01:34:33;;;;;;;13.65;5.40;;;;;;;;;;4972772;28;20093;-62
2022/10/24 01:37:13;;;;;;;11.30;5.30;;;;;;;;;;4970600;28;20042;-62
2022/10/24 01:40:02;;;;;;;13.50;5.28;;;;;;;;;;4974799;28;20080;-62
2022/10/24 01:42:31;;;;;;;9.63;4.97;;;;;;;;;;4974001;28;20051;-62
2022/10/24 01:45:00;;;;;;;9.43;5.30;;;;;;;;;;4973758;28;20045;-62
2022/10/24 01:47:29;;;;;;;13.07;5.53;;;;;;;;;;4976223;28;20058;-62
2022/10/24 01:49:59;;;;;;;17.33;5.00;;;;;;;;;;4972457;28;20413;-61
2022/10/24 01:52:29;;;;;;;18.42;5.70;;;;;;;;;;4979610;28;20192;-61
2022/10/24 01:54:55;;;;;;;13.65;4.80;;;;;;;;;;4970111;28;20047;-62
2022/10/24 01:57:28;;;;;;;10.38;5.60;;;;;;;;;;4976254;28;20499;-62
2022/10/24 01:59:53;;;;;;;11.13;5.35;;;;;;;;;;4973881;28;20042;-62
2022/10/24 02:02:24;;;;;;;8.52;5.05;;;;;;;;;;4971859;28;20104;-62
2022/10/24 02:04:52;;;;;;;16.27;5.10;;;;;;;;;;4971759;28;20070;-62
2022/10/24 02:07:19;;;;;;;12.60;4.90;;;;;;;;;;4977212;28;20528;-61
2022/10/24 02:09:49;;;;;;;15.13;5.20;;;;;;;;;;4982751;28;20050;-62
2022/10/24 02:12:16;;;;;;;17.40;5.95;;;;;;;;;;4978368;28;20034;-60
2022/10/24 02:14:49;;;;;;;13.80;5.82;;;;;;;;;;4978762;28;20053;-62
2022/10/24 02:17:15;;;;;;;9.90;5.55;;;;;;;;;;4973821;28;20062;-60
2022/10/24 02:19:41;;;;;;;13.93;5.97;;;;;;;;;;4973099;28;20038;-62
2022/10/24 02:22:25;;;;;;;15.40;5.25;;;;;;;;;;4972942;28;20058;-62
2022/10/24 02:25:00;;;;;;;11.50;5.38;;;;;;;;;;4970561;28;20074;-62
2022/10/24 02:27:40;;;;;;;14.40;5.10;;;;;;;;;;4973230;28;20042;-62
2022/10/24 02:30:17;;;;;;;13.95;4.93;;;;;;;;;;4974969;28;20401;-62
2022/10/24 02:32:51;;;;;;;13.65;4.88;;;;;;;;;;4980568;28;20752;-62
2022/10/24 02:35:20;;;;;;;12.43;5.15;;;;;;;;;;4975293;28;20043;-62
2022/10/24 02:37:50;;;;;;;12.77;5.30;;;;;;;;;;4974090;28;20081;-61
2022/10/24 02:40:18;;;;;;;13.65;5.53;;;;;;;;;;4977500;28;20046;-61
2022/10/24 02:42:46;;;;;;;15.10;5.25;;;;;;;;;;4974077;28;20061;-62
2022/10/24 02:45:14;;;;;;;17.15;5.18;;;;;;;;;;4976118;28;20049;-62
2022/10/24 02:47:41;;;;;;;14.45;5.47;;;;;;;;;;4974144;28;20038;-62
2022/10/24 02:50:08;;;;;;;13.07;4.90;;;;;;;;;;4983392;28;20778;-62
2022/10/24 02:52:34;;;;;;;11.38;5.00;;;;;;;;;;4980127;28;20046;-62
2022/10/24 02:55:00;;;;;;;9.98;4.47;;;;;;;;;;4984620;28;20081;-60
2022/10/24 02:57:26;;;;;;;10.52;4.97;;;;;;;;;;4987333;28;20058;-62
2022/10/24 02:59:52;;;;;;;11.23;4.65;;;;;;;;;;4979230;28;20069;-62
2022/10/24 03:02:18;;;;;;;9.80;4.30;;;;;;;;;;4978261;28;20058;-62
2022/10/24 03:04:44;;;;;;;14.63;5.50;;;;;;;;;;4982248;28;20045;-62
2022/10/24 03:07:10;;;;;;;12.32;5.45;;;;;;;;;;4984399;28;20074;-62
2022/10/24 03:09:35;;;;;;;10.50;4.80;;;;;;;;;;4984042;28;20139;-62
2022/10/24 03:12:01;;;;;;;17.80;4.88;;;;;;;;;;4980656;28;20038;-62
2022/10/24 03:14:26;;;;;;;14.38;5.82;;;;;;;;;;4981806;28;20042;-62
2022/10/24 03:16:52;;;;;;;11.50;5.40;;;;;;;;;;4977984;28;20046;-61
2022/10/24 03:19:18;;;;;;;15.25;5.20;;;;;;;;;;4984307;28;20077;-62
2022/10/24 03:21:43;;;;;;;13.80;5.57;;;;;;;;;;4977437;28;20054;-62
2022/10/24 03:24:09;;;;;;;10.88;5.43;;;;;;;;;;4982720;28;20077;-62
2022/10/24 03:26:34;;;;;;;11.85;6.00;;;;;;;;;;4980146;28;20085;-61
2022/10/24 03:29:00;;;;;;;11.13;5.57;;;;;;;;;;4981983;28;20057;-61
2022/10/24 03:31:26;;;;;;;14.27;4.95;;;;;;;;;;4981404;28;20121;-61
2022/10/24 03:33:51;;;;;;;12.98;5.10;;;;;;;;;;4975219;28;20120;-61
2022/10/24 03:36:17;;;;;;;13.32;5.43;;;;;;;;;;4984612;28;20042;-62
2022/10/24 03:38:42;;;;;;;12.25;5.28;;;;;;;;;;4977813;28;20062;-62
2022/10/24 03:41:08;;;;;;;13.75;5.28;;;;;;;;;;4979774;28;20065;-61
2022/10/24 03:43:33;;;;;;;10.48;5.18;;;;;;;;;;4975808;28;20168;-61
2022/10/24 03:45:58;;;;;;;12.93;4.82;;;;;;;;;;4977141;28;20107;-61
2022/10/24 03:48:24;;;;;;;12.80;5.10;;;;;;;;;;4979117;28;20413;-61
2022/10/24 03:50:50;;;;;;;13.40;5.57;;;;;;;;;;4975644;28;20049;-61
2022/10/24 03:53:15;;;;;;;19.88;5.05;;;;;;;;;;4976515;28;20061;-61
2022/10/24 03:55:41;;;;;;;13.70;4.70;;;;;;;;;;4981718;28;20132;-61
2022/10/24 03:58:06;;;;;;;14.30;5.00;;;;;;;;;;4978440;28;20054;-62
2022/10/24 04:00:37;;;;;;;17.55;4.65;;;;;;;;;;4978834;28;20053;-61
2022/10/24 04:03:03;;;;;;;11.25;5.10;;;;;;;;;;4979911;28;20050;-62
2022/10/24 04:05:28;;;;;;;15.68;4.97;;;;;;;;;;4980804;28;20046;-62
2022/10/24 04:07:53;;;;;;;13.27;5.00;;;;;;;;;;4982420;28;20133;-61
2022/10/24 04:10:19;;;;;;;18.88;5.25;;;;;;;;;;4972579;28;20062;-62
2022/10/24 04:12:44;;;;;;;15.73;4.78;;;;;;;;;;4964309;28;20244;-62
2022/10/24 04:15:10;;;;;;;14.05;5.13;;;;;;;;;;4976653;28;20034;-61
2022/10/24 04:17:35;;;;;;;9.45;5.22;;;;;;;;;;4983752;28;20031;-62
2022/10/24 04:20:01;;;;;;;10.05;4.40;;;;;;;;;;4977298;28;20065;-62
2022/10/24 04:22:26;;;;;;;12.40;4.70;;;;;;;;;;4978775;28;20061;-63
2022/10/24 04:24:52;;;;;;;16.75;5.10;;;;;;;;;;4973015;28;20111;-62
2022/10/24 04:27:17;;;;;;;13.85;4.95;;;;;;;;;;4974224;28;20137;-61
2022/10/24 04:29:42;;;;;;;13.48;4.55;;;;;;;;;;4976028;28;20026;-61
2022/10/24 04:32:08;;;;;;;12.55;5.28;;;;;;;;;;4975921;28;20054;-61
2022/10/24 04:34:35;;;;;;;13.40;5.57;;;;;;;;;;4978727;28;20133;-61
2022/10/24 04:37:00;;;;;;;14.57;5.32;;;;;;;;;;4973222;28;20084;-62
2022/10/24 04:39:25;;;;;;;19.50;4.90;;;;;;;;;;4981366;28;20042;-61
2022/10/24 04:41:51;;;;;;;12.00;5.15;;;;;;;;;;4978845;28;20034;-61
2022/10/24 04:44:17;;;;;;;14.23;5.53;;;;;;;;;;4974093;28;20137;-60
2022/10/24 04:46:43;;;;;;;14.05;4.90;;;;;;;;;;4975172;28;20046;-62
2022/10/24 04:49:08;;;;;;;13.70;5.15;;;;;;;;;;4981740;28;20061;-62
2022/10/24 04:51:34;;;;;;;10.73;4.50;;;;;;;;;;4980295;28;20050;-62
2022/10/24 04:54:00;;;;;;;9.52;4.95;;;;;;;;;;4981935;28;20120;-71
2022/10/24 04:56:25;;;;;;;11.93;4.88;;;;;;;;;;4979340;28;20462;-72
2022/10/24 04:58:51;;;;;;;10.00;5.05;;;;;;;;;;4977464;28;20046;-73
2022/10/24 05:01:17;;;;;;;14.02;4.80;;;;;;;;;;4981472;28;20094;-74
2022/10/24 05:03:42;;;;;;;18.98;4.47;;;;;;;;;;4979416;28;20402;-72
2022/10/24 05:06:07;;;;;;;16.30;4.65;;;;;;;;;;4976734;28;20085;-73
2022/10/24 05:08:33;;;;;;;11.80;4.95;;;;;;;;;;4980453;28;20057;-74
2022/10/24 05:10:58;;;;;;;13.50;4.72;;;;;;;;;;4980591;28;20058;-73
2022/10/24 05:13:24;;;;;;;11.57;4.82;;;;;;;;;;4981936;28;20153;-73
2022/10/24 05:15:49;;;;;;;9.63;4.45;;;;;;;;;;4979727;28;20145;-73
2022/10/24 05:18:15;;;;;;;12.45;5.13;;;;;;;;;;4980261;28;20043;-74
2022/10/24 05:20:40;;;;;;;14.10;5.15;;;;;;;;;;4975910;28;20026;-73
2022/10/24 05:23:05;;;;;;;13.27;5.05;;;;;;;;;;4977998;28;20082;-73
2022/10/24 05:25:31;;;;;;;14.52;5.60;;;;;;;;;;4981701;28;20073;-73
2022/10/24 05:27:56;;;;;;;11.27;5.40;;;;;;;;;;4980443;28;20494;-74
2022/10/24 05:30:22;;;;;;;18.75;5.90;;;;;;;;;;4973725;28;20059;-73
2022/10/24 05:32:47;;;;;;;14.10;5.45;;;;;;;;;;4971546;28;20038;-72
2022/10/24 05:35:13;;;;;;;12.60;5.32;;;;;;;;;;4974410;28;20053;-72
2022/10/24 05:37:38;;;;;;;15.10;5.43;;;;;;;;;;4977502;28;20516;-74
2022/10/24 05:40:08;;;;;;;17.88;5.70;;;;;;;;;;4970226;28;20046;-74
2022/10/24 05:42:35;;;;;;;13.57;5.15;;;;;;;;;;4974518;28;20050;-74
2022/10/24 05:45:00;;;;;;;14.95;4.78;;;;;;;;;;4978479;28;20128;-73
2022/10/24 05:47:26;;;;;;;11.65;5.28;;;;;;;;;;4974332;28;20057;-74
2022/10/24 05:49:51;;;;;;;12.57;4.53;;;;;;;;;;4975396;28;20740;-74
2022/10/24 05:52:16;;;;;;;12.73;4.93;;;;;;;;;;4975225;28;20470;-74
2022/10/24 05:54:42;;;;;;;13.52;5.68;;;;;;;;;;4978442;28;20034;-73
2022/10/24 05:57:07;;;;;;;16.92;5.50;;;;;;;;;;4986124;28;20767;-73
2022/10/24 05:59:32;;;;;;;15.70;5.45;;;;;;;;;;4987496;28;20065;-73
2022/10/24 06:01:58;;;;;;;14.52;6.07;;;;;;;;;;4978809;28;20074;-74
2022/10/24 06:04:23;;;;;;;20.83;5.82;;;;;;;;;;4982492;28;20046;-72
2022/10/24 06:06:49;;;;;;;15.63;5.97;;;;;;;;;;4980388;28;20430;-73
2022/10/24 06:09:14;;;;;;;17.33;5.38;;;;;;;;;;4982825;28;20046;-72
2022/10/24 06:11:41;;;;;;;13.38;5.70;;;;;;;;;;4993008;28;20117;-72
2022/10/24 06:14:07;;;;;;;13.82;6.03;;;;;;;;;;4979790;28;20362;-72
2022/10/24 06:16:33;;;;;;;19.00;5.60;;;;;;;;;;4978758;28;20074;-71
2022/10/24 06:18:59;;;;;;;14.38;5.93;;;;;;;;;;4981270;28;20117;-72
2022/10/24 06:21:24;;;;;;;16.98;7.05;;;;;;;;;;4986819;28;20035;-72
2022/10/24 06:23:50;;;;;;;16.95;6.60;;;;;;;;;;4975357;28;21316;-70
2022/10/24 06:26:15;;;;;;;16.30;5.93;;;;;;;;;;4974793;28;20053;-70
2022/10/24 06:28:41;;;;;;;16.02;5.47;;;;;;;;;;4976613;28;20465;-69
2022/10/24 06:31:08;;;;;;;11.73;5.70;;;;;;;;;;4981743;28;20077;-69
2022/10/24 06:33:34;;;;;;;15.25;5.85;;;;;;;;;;4981376;28;20521;-69
2022/10/24 06:36:03;;;;;;;17.05;6.10;;;;;;;;;;4981951;28;20107;-69
2022/10/24 06:38:29;;;;;;;10.95;5.60;;;;;;;;;;4983702;28;20054;-69
2022/10/24 06:40:54;;;;;;;20.60;6.60;;;;;;;;;;4971029;28;20069;-71
2022/10/24 06:43:19;;;;;;;17.65;6.22;;;;;;;;;;4968813;28;20146;-68
2022/10/24 06:45:45;;;;;;;13.48;5.95;;;;;;;;;;4968247;28;20050;-68
2022/10/24 06:48:11;;;;;;;14.40;5.88;;;;;;;;;;4974264;28;20465;-68
2022/10/24 06:50:39;;;;;;;18.60;5.30;;;;;;;;;;4976993;28;20034;-68
2022/10/24 06:53:08;;;;;;;13.73;5.53;;;;;;;;;;4985137;28;20050;-69
2022/10/24 06:55:36;;;;;;;14.82;5.88;;;;;;;;;;4981950;28;20514;-68
2022/10/24 06:58:02;;;;;;;17.90;5.53;;;;;;;;;;4984600;28;20054;-68
2022/10/24 07:00:27;;;;;;;14.25;5.32;;;;;;;;;;4978149;28;20104;-69
2022/10/24 07:02:52;;;;;;;19.98;5.65;;;;;;;;;;4982340;28;20069;-69
2022/10/24 07:05:18;;;;;;;13.30;5.07;;;;;;;;;;4977568;28;20141;-68
2022/10/24 07:07:43;;;;;;;15.20;6.15;;;;;;;;;;4962848;28;20106;-69
2022/10/24 07:10:13;;;;;;;13.32;5.82;;;;;;;;;;4973320;28;20096;-69
2022/10/24 07:12:39;;;;;;;19.48;5.53;;;;;;;;;;4979683;28;20050;-69
2022/10/24 07:15:05;;;;;;;21.40;6.18;;;;;;;;;;4983872;28;20116;-69
2022/10/24 07:17:36;;;;;;;19.05;5.40;;;;;;;;;;4981936;28;20067;-69
2022/10/24 07:20:02;;;;;;;14.77;6.10;;;;;;;;;;4979482;28;20130;-68
2022/10/24 07:22:27;;;;;;;22.40;7.15;;;;;;;;;;4978135;28;20149;-68
2022/10/24 07:24:54;;;;;;;22.90;7.85;;;;;;;;;;4981387;28;20077;-69
2022/10/24 07:27:20;;;;;;;25.17;7.80;;;;;;;;;;4976833;28;20128;-69
2022/10/24 07:29:45;;;;;;;22.20;7.47;;;;;;;;;;4977765;28;20042;-69
2022/10/24 07:32:11;;;;;;;31.65;7.78;;;;;;;;;;4978150;28;20046;-69
2022/10/24 07:34:38;;;;;;;13.73;5.88;;;;;;;;;;4982047;28;20054;-68
2022/10/24 07:37:03;;;;;;;17.05;5.82;;;;;;;;;;4983134;28;20047;-68
2022/10/24 07:39:29;;;;;;;18.52;6.88;;;;;;;;;;4978003;28;20050;-69
2022/10/24 07:41:54;;;;;;;13.25;5.55;;;;;;;;;;4975582;28;20390;-69
2022/10/24 07:44:19;;;;;;;13.15;5.00;;;;;;;;;;4975308;28;20104;-69
2022/10/24 07:46:45;;;;;;;13.30;5.20;;;;;;;;;;4974890;28;20058;-69
2022/10/24 07:49:10;;;;;;;13.32;5.15;;;;;;;;;;4974080;28;20057;-69
2022/10/24 07:51:36;;;;;;;13.38;5.07;;;;;;;;;;4979772;28;20054;-68
2022/10/24 07:54:01;;;;;;;12.77;5.05;;;;;;;;;;4976794;28;20064;-69
2022/10/24 07:56:27;;;;;;;14.23;5.32;;;;;;;;;;4975996;28;20055;-68
2022/10/24 07:58:54;;;;;;;16.02;4.97;;;;;;;;;;4976288;28;20050;-68
2022/10/24 08:01:22;;;;;;;13.90;4.65;;;;;;;;;;4980450;28;20108;-69
2022/10/24 08:03:48;;;;;;;20.38;5.28;;;;;;;;;;4977757;28;20616;-70
2022/10/24 08:06:17;;;;;;;19.08;5.10;;;;;;;;;;4977389;28;20088;-70
2022/10/24 08:08:43;;;;;;;26.63;5.15;;;;;;;;;;4982461;28;20478;-69
2022/10/24 08:11:18;;;;;;;26.70;4.18;;;;;;;;;;4983970;28;20060;-68
2022/10/24 08:13:44;;;;;;;16.98;5.03;;;;;;;;;;4976667;28;20116;-68
2022/10/24 08:16:12;;;;;;;12.55;4.15;;;;;;;;;;4984968;28;20046;-68
2022/10/24 08:18:38;;;;;;;19.20;4.75;;;;;;;;;;4974605;28;20061;-70
2022/10/24 08:21:06;;;;;;;14.70;4.53;;;;;;;;;;4977237;28;20042;-69
2022/10/24 08:23:33;;;;;;;11.85;4.20;;;;;;;;;;4987144;28;20093;-69
2022/10/24 08:25:58;;;;;;;11.55;3.97;;;;;;;;;;4978367;28;20050;-68
2022/10/24 08:28:24;;;;;;;15.45;4.82;;;;;;;;;;4973263;28;20061;-69
2022/10/24 08:30:58;;;;;;;13.32;3.97;;;;;;;;;;4977396;28;20553;-69
2022/10/24 08:33:24;;;;;;;12.40;3.90;;;;;;;;;;4975951;28;20058;-69
2022/10/24 08:35:57;;;;;;;15.38;4.20;;;;;;;;;;4976776;28;20034;-69
2022/10/24 08:38:23;;;;;;;14.27;3.85;;;;;;;;;;4973348;28;20571;-69
2022/10/24 08:40:49;;;;;;;14.52;4.40;;;;;;;;;;4981359;28;20042;-69
2022/10/24 08:43:15;;;;;;;8.80;4.03;;;;;;;;;;4975109;28;20505;-69
2022/10/24 08:46:07;;;;;;;10.93;4.18;;;;;;;;;;4981315;28;20043;-69
2022/10/24 08:48:53;;;;;;;19.52;4.10;;;;;;;;;;4983604;28;20430;-69
2022/10/24 08:51:37;;;;;;;12.18;4.15;;;;;;;;;;4976860;28;20034;-69
2022/10/24 08:54:13;;;;;;;22.90;4.50;;;;;;;;;;4979977;28;20084;-68
2022/10/24 08:56:40;;;;;;;16.73;4.38;;;;;;;;;;4984169;28;20034;-69
2022/10/24 08:59:11;;;;;;;12.18;4.32;;;;;;;;;;4981594;28;20078;-69
2022/10/24 09:01:51;;;;;;;15.68;4.85;;;;;;;;;;4987263;28;20077;-69
2022/10/24 09:04:20;;;;;;;16.65;4.15;;;;;;;;;;4977730;28;20492;-69
2022/10/24 09:06:47;;;;;;;10.85;3.88;;;;;;;;;;4978495;28;20058;-69
2022/10/24 09:09:18;;;;;;;15.20;4.07;;;;;;;;;;4988209;28;20117;-69
2022/10/24 09:11:55;;;;;;;11.32;4.30;;;;;;;;;;4976681;28;20038;-69
2022/10/24 09:14:30;;;;;;;16.50;3.80;;;;;;;;;;4982272;28;20050;-70
2022/10/24 09:17:19;;;;;;;12.00;3.53;;;;;;;;;;4979196;28;20054;-69
2022/10/24 09:19:48;;;;;;;11.90;3.15;;;;;;;;;;4973715;28;20089;-70
2022/10/24 09:22:14;;;;;;;19.30;3.72;;;;;;;;;;4977436;28;20046;-70
2022/10/24 09:24:43;;;;;;;17.25;4.53;;;;;;;;;;4972190;28;20094;-70
2022/10/24 09:27:22;;;;;;;24.63;4.85;;;;;;;;;;4976069;28;20113;-69
2022/10/24 09:29:47;;;;;;;13.82;4.28;;;;;;;;;;4972900;28;20038;-69
2022/10/24 09:32:22;;;;;;;12.90;4.25;;;;;;;;;;4966778;28;20512;-71
2022/10/24 09:34:48;;;;;;;22.40;3.88;;;;;;;;;;4969855;28;20053;-70
2022/10/24 09:37:33;;;;;;;10.30;3.45;;;;;;;;;;4976676;28;20050;-69
2022/10/24 09:40:22;;;;;;;12.07;4.57;;;;;;;;;;4969127;28;20073;-69
2022/10/24 09:43:01;;;;;;;14.18;3.95;;;;;;;;;;4973314;28;20096;-68
2022/10/24 09:45:32;;;;;;;12.70;4.28;;;;;;;;;;4967733;28;20074;-68
2022/10/24 09:48:06;;;;;;;12.32;3.85;;;;;;;;;;4970379;28;20125;-68
2022/10/24 09:50:34;;;;;;;12.55;4.18;;;;;;;;;;4977850;28;20074;-67
2022/10/24 09:53:02;;;;;;;16.77;4.40;;;;;;;;;;4975714;28;20061;-68
2022/10/24 09:55:28;;;;;;;20.40;3.90;;;;;;;;;;4982743;28;20089;-69
2022/10/24 09:57:56;;;;;;;16.17;4.68;;;;;;;;;;4968447;28;20060;-67
2022/10/24 10:00:28;;;;;;;22.50;4.28;;;;;;;;;;4972886;28;20186;-67
2022/10/24 10:03:02;;;;;;;14.25;4.40;;;;;;;;;;4975548;28;20096;-68
2022/10/24 10:05:46;;;;;;;20.58;4.97;;;;;;;;;;4979468;28;20054;-67
2022/10/24 10:08:19;;;;;;;19.88;4.93;;;;;;;;;;4976381;28;20121;-68
2022/10/24 10:10:53;;;;;;;;;;;;;;;;;;4975416;28;20195;-67
2022/10/24 10:13:22;;;;;;;11.85;3.75;;;;;;;;;;4975176;28;20626;-69
2022/10/24 10:15:48;;;;;;;24.90;4.80;;;;;;;;;;4979233;28;20046;-71
2022/10/24 10:18:19;;;;;;;16.65;4.40;;;;;;;;;;4975220;28;20031;-68
2022/10/24 10:20:44;;;;;;;14.25;4.75;;;;;;;;;;4980771;28;20062;-68
2022/10/24 10:23:36;;;;;;;23.77;5.28;;;;;;;;;;4978077;28;20518;-67
2022/10/24 10:26:07;;;;;;;14.27;3.47;;;;;;;;;;4971862;28;20461;-67
2022/10/24 10:28:40;;;;;;;19.13;3.40;;;;;;;;;;4974798;28;20046;-67
2022/10/24 10:31:07;;;;;;;;;;;;;;;;;;4980118;28;20060;-67
2022/10/24 10:33:40;;;;;;;14.48;3.78;;;;;;;;;;4977457;28;19926;-68
2022/10/24 10:36:18;;;;;;;;;;;;;;;;;;4977272;28;20074;-69
2022/10/24 10:39:05;;;;;;;11.70;2.83;;;;;;;;;;4966642;28;19925;-67
2022/10/24 10:41:52;;;;;;;9.60;2.80;;;;;;;;;;4975785;28;20049;-69
2022/10/24 10:44:30;;;;;;;11.40;2.75;;;;;;;;;;4977143;28;20062;-68
2022/10/24 10:47:07;;;;;;;9.43;2.90;;;;;;;;;;4983439;28;20054;-69
2022/10/24 10:49:41;;;;;;;14.52;2.58;;;;;;;;;;4976270;28;20046;-68
2022/10/24 10:52:12;;;;;;;12.82;2.40;;;;;;;;;;4984915;28;20065;-69
2022/10/24 10:55:19;;;;;;;11.07;2.38;;;;;;;;;;4987120;28;20054;-68
2022/10/24 10:57:59;;;;;;;10.55;2.47;;;;;;;;;;4977733;28;20050;-67
2022/10/24 11:00:31;;;;;;;9.52;1.90;;;;;;;;;;4979848;28;20109;-69
2022/10/24 11:03:18;;;;;;;12.43;2.05;;;;;;;;;;4985117;28;20037;-67
2022/10/24 11:06:29;;;;;;;7.93;1.90;;;;;;;;;;4984365;28;20058;-68
2022/10/24 11:09:28;;;;;;;6.07;1.95;;;;;;;;;;4962326;28;20069;-68
2022/10/24 11:12:01;;;;;;;9.82;2.05;;;;;;;;;;4983005;28;20055;-69
2022/10/24 11:14:32;;;;;;;;;;;;;;;;;;4981435;28;20074;-70
2022/10/24 11:17:05;;;;;;;7.97;2.53;;;;;;;;;;4976728;28;19926;-69
2022/10/24 11:20:03;;;;;;;12.52;2.25;;;;;;;;;;4980066;28;20100;-68
2022/10/24 11:22:47;;;;;;;10.52;2.95;;;;;;;;;;4980636;28;20062;-67
2022/10/24 11:25:31;;;;;;;6.13;2.22;;;;;;;;;;4975089;28;20089;-69
2022/10/24 11:28:10;;;;;;;5.70;2.08;;;;;;;;;;4973571;28;20457;-68
2022/10/24 11:30:51;;;;;;;8.70;1.95;;;;;;;;;;4977989;28;20061;-67
2022/10/24 11:33:48;;;;;;;8.35;2.38;;;;;;;;;;4977048;28;20034;-68
2022/10/24 11:36:35;;;;;;;7.88;1.98;;;;;;;;;;4984134;28;20132;-68
2022/10/24 11:39:21;;;;;;;6.85;1.58;;;;;;;;;;4982025;28;20037;-68
2022/10/24 11:41:55;;;;;;;5.53;1.95;;;;;;;;;;4978185;28;20050;-69
2022/10/24 11:44:39;;;;;;;4.80;1.27;;;;;;;;;;4982692;28;20137;-68
2022/10/24 11:47:13;;;;;;;4.60;1.13;;;;;;;;;;4984406;28;20054;-69
2022/10/24 11:49:44;;;;;;;4.05;1.25;;;;;;;;;;4987695;28;20049;-69
2022/10/24 11:52:25;;;;;;;6.28;1.20;;;;;;;;;;4984357;28;20063;-67
2022/10/24 11:55:06;;;;;;;4.45;0.90;;;;;;;;;;4987728;28;20078;-69
2022/10/24 11:57:33;;;;;;;3.55;1.00;;;;;;;;;;4980578;28;20071;-69
2022/10/24 11:59:59;;;;;;;8.32;1.42;;;;;;;;;;4983671;28;20042;-68
2022/10/24 12:02:42;;;;;;;5.95;1.40;;;;;;;;;;4981835;28;20068;-69
2022/10/24 12:05:20;;;;;;;5.60;1.15;;;;;;;;;;4983010;28;20058;-69
2022/10/24 12:08:11;;;;;;;3.53;1.00;;;;;;;;;;4988525;28;20061;-68
2022/10/24 12:11:11;;;;;;;3.60;1.10;;;;;;;;;;4987808;28;20092;-67
2022/10/24 12:14:02;;;;;;;5.10;1.25;;;;;;;;;;4981113;28;20064;-68
2022/10/24 12:16:40;;;;;;;3.20;1.00;;;;;;;;;;4964439;28;20050;-67
2022/10/24 12:19:12;;;;;;;8.93;1.13;;;;;;;;;;4989493;28;20050;-69
2022/10/24 12:21:44;;;;;;;5.18;1.02;;;;;;;;;;4981568;28;20058;-68
2022/10/24 12:24:29;;;;;;;4.07;1.00;;;;;;;;;;4990628;28;20128;-67
2022/10/24 12:27:34;;;;;;;4.32;0.90;;;;;;;;;;4979397;28;20034;-68
2022/10/24 12:30:27;;;;;;;2.28;0.75;;;;;;;;;;4976440;28;20050;-67
2022/10/24 12:33:04;;;;;;;3.63;0.70;;;;;;;;;;4981256;28;20053;-69
2022/10/24 12:35:34;;;;;;;5.68;1.13;;;;;;;;;;4981797;28;20105;-68
2022/10/24 12:38:01;;;;;;;4.50;1.17;;;;;;;;;;4992727;28;20081;-67
2022/10/24 12:40:50;;;;;;;4.20;1.35;;;;;;;;;;4983742;28;20093;-68
2022/10/24 12:43:28;;;;;;;3.15;1.40;;;;;;;;;;4983559;28;20042;-67
2022/10/24 12:45:54;;;;;;;2.03;0.75;;;;;;;;;;4982604;28;20050;-69
2022/10/24 12:48:35;;;;;;;5.10;1.00;;;;;;;;;;4989032;28;20030;-68
2022/10/24 12:51:20;;;;;;;4.15;1.10;;;;;;;;;;4982628;28;20031;-67
2022/10/24 12:54:11;;;;;;;4.25;0.80;;;;;;;;;;4986532;28;20133;-68
2022/10/24 12:56:59;;;;;;;4.88;0.70;;;;;;;;;;4987129;28;20153;-68
2022/10/24 12:59:43;;;;;;;4.05;0.90;;;;;;;;;;4985474;28;20141;-68
2022/10/24 13:02:14;;;;;;;2.80;0.80;;;;;;;;;;4981577;28;20061;-67
2022/10/24 13:05:02;;;;;;;5.78;1.00;;;;;;;;;;4983333;28;20480;-69
2022/10/24 13:07:34;;;;;;;3.17;0.82;;;;;;;;;;4985585;28;20042;-68
2022/10/24 13:10:30;;;;;;;3.80;1.02;;;;;;;;;;4984553;28;20057;-69
2022/10/24 13:12:58;;;;;;;3.90;0.90;;;;;;;;;;4979528;28;20066;-69
2022/10/24 13:15:41;;;;;;;5.85;0.70;;;;;;;;;;4982660;28;21483;-70
2022/10/24 13:18:31;;;;;;;4.68;0.85;;;;;;;;;;4985131;28;20509;-69
2022/10/24 13:21:12;;;;;;;5.85;1.50;;;;;;;;;;4980586;28;20034;-70
2022/10/24 13:23:37;;;;;;;5.57;1.83;;;;;;;;;;4981942;28;20089;-67
2022/10/24 13:26:04;;;;;;;3.55;1.20;;;;;;;;;;4984253;28;20465;-69
2022/10/24 13:28:37;;;;;;;2.67;0.90;;;;;;;;;;4982687;28;20096;-68
2022/10/24 13:31:03;;;;;;;2.47;0.90;;;;;;;;;;4977992;28;20764;-69
2022/10/24 13:33:32;;;;;;;5.97;0.90;;;;;;;;;;4981867;28;20058;-69
2022/10/24 13:36:25;;;;;;;3.95;0.93;;;;;;;;;;4979357;28;20066;-69
2022/10/24 13:39:00;;;;;;;5.88;0.80;;;;;;;;;;4982091;28;20081;-70
2022/10/24 13:41:34;;;;;;;6.18;1.10;;;;;;;;;;4983096;28;20050;-68
2022/10/24 13:44:42;;;;;;;5.28;0.95;;;;;;;;;;4981238;28;20105;-69
2022/10/24 13:47:27;;;;;;;1.88;0.80;;;;;;;;;;4986293;28;20058;-68
2022/10/24 13:50:03;;;;;;;3.83;0.95;;;;;;;;;;4985909;28;20046;-68
2022/10/24 13:52:41;;;;;;;5.35;1.08;;;;;;;;;;4974791;28;22611;-67
2022/10/24 13:55:37;;;;;;;5.82;1.00;;;;;;;;;;4980813;28;20410;-67
2022/10/24 13:58:10;;;;;;;3.80;1.08;;;;;;;;;;4970003;28;20420;-67
2022/10/24 14:00:39;;;;;;;4.95;0.90;;;;;;;;;;4985157;28;21100;-67
2022/10/24 14:03:15;;;;;;;5.22;1.00;;;;;;;;;;4976501;28;20041;-69
2022/10/24 14:05:52;;;;;;;4.57;1.45;;;;;;;;;;4985025;28;20038;-68
2022/10/24 14:08:31;;;;;;;2.65;0.93;;;;;;;;;;4985627;28;20325;-68
2022/10/24 14:10:59;;;;;;;3.47;1.15;;;;;;;;;;4986874;28;20073;-71
2022/10/24 14:13:27;;;;;;;6.25;1.13;;;;;;;;;;4985382;28;20409;-68
2022/10/24 14:15:55;;;;;;;3.60;0.82;;;;;;;;;;4980995;28;20065;-67
2022/10/24 14:18:22;;;;;;;2.45;0.70;;;;;;;;;;4985679;28;20042;-67
2022/10/24 14:20:57;;;;;;;3.50;1.13;;;;;;;;;;4986378;28;20030;-67
2022/10/24 14:23:27;;;;;;;3.78;0.98;;;;;;;;;;4987825;28;20042;-68
2022/10/24 14:25:59;;;;;;;2.33;0.75;;;;;;;;;;4991152;28;20113;-68
2022/10/24 14:28:28;;;;;;;3.55;1.25;;;;;;;;;;4988210;28;20077;-68
2022/10/24 14:30:56;;;;;;;5.57;0.98;;;;;;;;;;4990079;28;20047;-67
2022/10/24 14:33:27;;;;;;;3.47;1.13;;;;;;;;;;4986108;28;20034;-68
2022/10/24 14:35:54;;;;;;;4.07;1.20;;;;;;;;;;4979583;28;20042;-68
2022/10/24 14:38:21;;;;;;;5.57;0.88;;;;;;;;;;4985099;28;20145;-68
2022/10/24 14:40:47;;;;;;;7.57;1.52;;;;;;;;;;4988744;28;20050;-68
2022/10/24 14:43:19;;;;;;;3.35;1.00;;;;;;;;;;4983553;28;20057;-68
2022/10/24 14:46:04;;;;;;;4.03;1.20;;;;;;;;;;4987543;28;20494;-68
2022/10/24 14:48:30;;;;;;;9.35;1.10;;;;;;;;;;4990310;28;20042;-69
2022/10/24 14:51:06;;;;;;;2.95;1.20;;;;;;;;;;4985505;28;20434;-67
2022/10/24 14:53:31;;;;;;;5.65;0.95;;;;;;;;;;4983093;28;20054;-68
2022/10/24 14:55:59;;;;;;;3.90;1.02;;;;;;;;;;4989565;28;20046;-68
2022/10/24 14:58:29;;;;;;;5.85;0.90;;;;;;;;;;4981583;28;20470;-68
2022/10/24 15:00:55;;;;;;;4.65;1.20;;;;;;;;;;4983067;28;20402;-68
2022/10/24 15:03:23;;;;;;;4.38;1.10;;;;;;;;;;4986970;28;20042;-68